Time;durP1;ratioP1;P1;durP2;ratioP2;P2;SDS_P1;SDS_P2;PMS_P1;PMS_P2;Temp;Humidity;BMP_temperature;BMP_pressure;BME280_temperature;BME280_humidity;BME280_pressure;Samples;Min_cycle;Max_cycle;Signal;HPM_P1;HPM_P2
2022/02/28 00:01:26;;;;;;;;;20.00;20.00;;;;;3.11;55.35;100653.34;6281603;20;2500349;-44
2022/02/28 00:03:57;;;;;;;;;37.00;29.00;;;;;3.29;55.93;100655.69;6283967;20;2851419;-45
2022/02/28 00:06:27;;;;;;;;;40.00;26.50;;;;;3.39;55.89;100648.44;6282360;20;2871254;-44
2022/02/28 00:08:56;;;;;;;;;39.00;33.50;;;;;3.45;55.78;100648.34;6282374;20;2849221;-43
2022/02/28 00:11:24;;;;;;;;;20.50;16.00;;;;;3.42;57.42;100642.19;6286144;20;2827457;-46
2022/02/28 00:13:52;;;;;;;;;29.00;28.00;;;;;3.21;56.57;100643.44;6282606;20;2853412;-45
2022/02/28 00:16:20;;;;;;;;;24.00;23.50;;;;;3.71;54.91;100637.28;6281936;20;2500285;-44
2022/02/28 00:18:48;;;;;;;;;31.00;24.00;;;;;3.82;54.39;100638.81;6284218;20;2849233;-43
2022/02/28 00:21:16;;;;;;;;;31.00;25.67;;;;;3.87;54.11;100644.94;6284421;20;3594007;-44
2022/02/28 00:23:44;;;;;;;;;28.50;25.00;;;;;3.81;54.28;100653.03;6281471;20;2500510;-45
2022/02/28 00:26:13;;;;;;;;;35.00;22.33;;;;;3.68;54.47;100639.97;6282367;20;3585747;-44
2022/02/28 00:28:41;;;;;;;;;29.00;23.00;;;;;3.85;54.14;100641.47;6278805;20;2500268;-43
2022/02/28 00:31:09;;;;;;;;;34.50;29.00;;;;;3.80;54.18;100641.53;6283111;20;2500315;-43
2022/02/28 00:33:39;;;;;;;;;33.00;26.50;;;;;4.09;53.58;100633.00;6282023;20;2859744;-43
2022/02/28 00:36:07;;;;;;;;;24.00;19.00;;;;;3.74;54.23;100626.59;6284869;20;2827334;-44
2022/02/28 00:38:36;;;;;;;;;26.00;16.00;;;;;3.60;55.03;100636.56;6283470;20;2837766;-44
2022/02/28 00:41:04;;;;;;;;;34.00;28.00;;;;;3.90;53.93;100629.84;6278160;20;2500274;-44
2022/02/28 00:43:34;;;;;;;;;31.00;26.50;;;;;4.07;53.70;100616.22;6283216;20;2852364;-43
2022/02/28 00:46:03;;;;;;;;;28.00;23.50;;;;;3.70;54.95;100622.22;6280829;20;2500272;-46
2022/02/28 00:48:30;;;;;;;;;30.50;26.00;;;;;3.69;55.17;100616.97;6280190;20;2500380;-45
2022/02/28 00:51:00;;;;;;;;;36.00;29.00;;;;;3.85;55.35;100615.75;6282885;20;2853378;-43
2022/02/28 00:53:29;;;;;;;;;35.00;35.00;;;;;3.34;55.73;100615.78;6283303;20;2864945;-44
2022/02/28 00:55:57;;;;;;;;;34.00;27.00;;;;;3.75;55.35;100608.88;6278139;20;2500255;-44
2022/02/28 00:58:25;;;;;;;;;29.00;24.00;;;;;3.47;56.39;100606.69;6279176;20;2500249;-43
2022/02/28 01:00:53;;;;;;;;;27.00;22.00;;;;;3.54;56.10;100612.78;6279543;20;2500272;-43
2022/02/28 01:03:21;;;;;;;;;26.00;22.00;;;;;3.44;56.25;100608.53;6283141;20;2837787;-44
2022/02/28 01:05:49;;;;;;;;;26.00;24.00;;;;;3.44;56.53;100604.09;6280832;20;2830456;-44
2022/02/28 01:08:18;;;;;;;;;31.00;27.50;;;;;3.38;56.37;100603.34;6278832;20;2500320;-46
2022/02/28 01:10:48;;;;;;;;;29.50;24.00;;;;;3.19;56.87;100598.34;6278313;20;2500328;-45
2022/02/28 01:13:16;;;;;;;;;21.00;17.00;;;;;3.29;57.29;100607.03;6282321;20;2833593;-47
2022/02/28 01:15:45;;;;;;;;;29.00;23.00;;;;;3.29;56.81;100588.44;6278845;20;2496098;-44
2022/02/28 01:18:14;;;;;;;;;24.00;24.00;;;;;3.49;56.75;100590.75;6279487;20;2500275;-45
2022/02/28 01:20:43;;;;;;;;;25.33;20.00;;;;;3.49;56.31;100590.75;6282253;20;3562752;-45
2022/02/28 01:23:12;;;;;;;;;28.33;25.67;;;;;3.73;56.44;100592.06;6279853;20;3582192;-46
2022/02/28 01:25:41;;;;;;;;;28.33;22.67;;;;;3.49;56.77;100588.97;6278800;20;3573188;-43
2022/02/28 01:28:09;;;;;;;;;24.50;21.50;;;;;3.77;56.77;100595.56;6281531;20;2815917;-44
2022/02/28 01:30:38;;;;;;;;;30.50;20.00;;;;;3.84;56.04;100587.44;6280907;20;2860793;-43
2022/02/28 01:33:07;;;;;;;;;24.33;21.67;;;;;3.77;55.93;100584.94;6281529;20;3579405;-45
2022/02/28 01:35:36;;;;;;;;;27.00;23.50;;;;;3.92;56.75;100582.88;6312463;20;2844216;-44
2022/02/28 01:38:06;;;;;;;;;22.67;20.33;;;;;3.97;56.00;100577.44;6280009;20;3565893;-43
2022/02/28 01:40:34;;;;;;;;;23.00;20.00;;;;;4.01;55.49;100579.16;6277575;20;2500367;-44
2022/02/28 01:43:03;;;;;;;;;27.00;22.50;;;;;3.90;55.71;100578.50;6281895;20;2836767;-43
2022/02/28 01:45:32;;;;;;;;;24.00;22.00;;;;;4.05;55.24;100580.81;6274254;20;2841956;-44
2022/02/28 01:48:00;;;;;;;;;25.00;22.50;;;;;4.10;55.29;100578.94;6280614;20;2629423;-44
2022/02/28 01:50:29;;;;;;;;;24.00;23.00;;;;;3.99;55.10;100578.28;6281298;20;2839957;-46
2022/02/28 01:52:59;;;;;;;;;36.50;29.00;;;;;3.98;55.38;100576.56;6281685;20;2860663;-45
2022/02/28 01:55:27;;;;;;;;;35.00;24.50;;;;;3.99;55.52;100565.00;6275858;20;2496141;-46
2022/02/28 01:57:57;;;;;;;;;30.33;22.00;;;;;4.09;55.50;100561.25;6280751;20;3580427;-44
2022/02/28 02:00:30;;;;;;;;;31.00;23.50;;;;;3.77;56.13;100569.00;6277166;20;2500333;-44
2022/02/28 02:02:58;;;;;;;;;27.00;20.00;;;;;3.70;56.86;100566.47;6280801;20;2840907;-44
2022/02/28 02:05:29;;;;;;;;;35.50;25.00;;;;;3.45;57.05;100566.06;6281628;20;2864880;-44
2022/02/28 02:07:59;;;;;;;;;41.00;28.00;;;;;3.72;56.73;100561.13;6282025;20;2879422;-44
2022/02/28 02:10:27;;;;;;;;;31.50;25.00;;;;;3.88;56.77;100559.03;6274108;20;2500323;-44
2022/02/28 02:12:55;;;;;;;;;24.50;23.50;;;;;4.06;56.20;100550.69;6279645;20;2500382;-44
2022/02/28 02:15:24;;;;;;;;;28.50;22.00;;;;;3.78;56.94;100549.50;6278699;20;2500262;-44
2022/02/28 02:17:55;;;;;;;;;27.00;22.00;;;;;3.92;56.68;100545.69;6281364;20;2841427;-45
2022/02/28 02:20:24;;;;;;;;;26.50;24.00;;;;;3.58;57.86;100548.13;6273064;20;2500295;-45
2022/02/28 02:22:59;;;;;;;;;26.67;24.67;;;;;3.62;57.99;100544.50;6280433;20;3577364;-46
2022/02/28 02:25:27;;;;;;;;;31.00;26.50;;;;;3.72;57.88;100545.19;6278405;20;2500256;-44
2022/02/28 02:27:56;;;;;;;;;25.00;23.00;;;;;3.79;57.78;100545.94;6277760;20;3564814;-44
2022/02/28 02:30:24;;;;;;;;;28.00;27.00;;;;;3.78;57.34;100544.19;6277534;20;2500258;-45
2022/02/28 02:32:53;;;;;;;;;27.00;24.00;;;;;3.77;57.43;100543.31;6278235;20;2500310;-43
2022/02/28 02:35:22;;;;;;;;;32.00;24.50;;;;;3.88;57.19;100541.31;6280717;20;2849687;-44
2022/02/28 02:37:50;;;;;;;;;25.00;21.00;;;;;3.82;57.73;100540.56;6279992;20;2844111;-44
2022/02/28 02:40:19;;;;;;;;;31.00;24.50;;;;;3.66;57.75;100538.22;6280292;20;2848198;-45
2022/02/28 02:42:48;;;;;;;;;25.33;21.00;;;;;3.73;57.92;100539.84;6281189;20;3561804;-44
2022/02/28 02:45:16;;;;;;;;;30.67;22.33;;;;;3.86;57.55;100537.81;6280974;20;3582578;-44
2022/02/28 02:47:44;;;;;;;;;26.00;21.00;;;;;3.97;57.27;100534.94;6279308;20;2832536;-45
2022/02/28 02:50:12;;;;;;;;;30.50;23.50;;;;;3.52;58.75;100526.97;6276537;20;2500298;-45
2022/02/28 02:52:41;;;;;;;;;24.67;22.33;;;;;3.37;59.06;100530.81;6277939;20;3566329;-42
2022/02/28 02:55:10;;;;;;;;;28.00;21.67;;;;;3.65;58.54;100528.50;6280923;20;3577435;-45
2022/02/28 02:57:37;;;;;;;;;24.00;21.00;;;;;3.71;58.44;100525.72;6319764;20;2709613;-46
2022/02/28 03:00:10;;;;;;;;;23.00;21.00;;;;;3.60;58.40;100525.03;6313461;20;2830569;-44
2022/02/28 03:02:40;;;;;;;;;31.83;25.33;;;;;3.82;58.11;100524.63;6307141;20;2859136;-43
2022/02/28 03:05:09;;;;;;;;;31.00;22.50;;;;;3.62;58.75;100525.91;6277366;20;2500269;-43
2022/02/28 03:07:37;;;;;;;;;30.00;23.50;;;;;3.50;58.44;100521.72;6279252;20;2500375;-44
2022/02/28 03:10:06;;;;;;;;;19.33;15.33;;;;;3.57;59.00;100519.81;6282826;20;3554378;-44
2022/02/28 03:12:34;;;;;;;;;26.00;25.00;;;;;3.64;58.39;100524.09;6316849;20;2498192;-46
2022/02/28 03:15:03;;;;;;;;;32.50;23.50;;;;;3.54;58.83;100516.34;6280187;20;2500290;-47
2022/02/28 03:17:33;;;;;;;;;26.00;23.50;;;;;3.76;57.87;100520.31;6282026;20;3448999;-45
2022/02/28 03:20:01;;;;;;;;;33.50;24.00;;;;;3.41;58.80;100513.03;6315864;20;2853436;-44
2022/02/28 03:22:29;;;;;;;;;24.00;24.00;;;;;3.43;58.78;100512.09;6285544;20;2848178;-43
2022/02/28 03:24:57;;;;;;;;;35.00;25.00;;;;;3.39;58.52;100509.53;6282481;20;2500286;-44
2022/02/28 03:27:26;;;;;;;;;30.00;24.00;;;;;3.55;58.44;100508.31;6284781;20;2856529;-45
2022/02/28 03:29:55;;;;;;;;;23.67;21.67;;;;;3.48;58.55;100509.38;6284414;20;3563911;-44
2022/02/28 03:32:23;;;;;;;;;26.50;23.00;;;;;3.40;58.88;100498.91;6313435;20;2498312;-44
2022/02/28 03:34:51;;;;;;;;;26.00;23.00;;;;;3.45;58.62;100506.75;6285299;20;2500411;-44
2022/02/28 03:37:20;;;;;;;;;24.67;24.67;;;;;3.41;58.42;100502.44;6281903;20;3571183;-49
2022/02/28 03:39:48;;;;;;;;;27.50;24.00;;;;;3.37;59.13;100498.97;6283065;20;2500253;-46
2022/02/28 03:42:17;;;;;;;;;26.33;22.67;;;;;3.54;58.00;100503.06;6286292;20;3586709;-46
2022/02/28 03:44:45;;;;;;;;;27.50;20.00;;;;;3.36;58.75;100498.97;6282348;20;2500276;-45
2022/02/28 03:47:14;;;;;;;;;26.67;24.33;;;;;3.39;58.24;100488.31;6283947;20;3583631;-50
2022/02/28 03:49:41;;;;;;;;;27.00;22.00;;;;;3.34;58.58;100496.34;6285109;20;2829477;-46
2022/02/28 03:52:09;;;;;;;;;19.00;19.00;;;;;3.32;58.53;100498.19;6286842;20;2827459;-44
2022/02/28 03:54:37;;;;;;;;;28.00;22.00;;;;;3.26;58.99;100503.56;6283177;20;2832681;-46
2022/02/28 03:57:06;;;;;;;;;27.00;21.33;;;;;3.32;58.87;100489.31;6284321;20;3570039;-45
2022/02/28 03:59:34;;;;;;;;;23.00;23.00;;;;;3.25;59.26;100486.78;6283400;20;2830470;-44
2022/02/28 04:02:02;;;;;;;;;20.00;19.00;;;;;3.28;59.01;100492.03;6284360;20;2837885;-43
2022/02/28 04:04:30;;;;;;;;;55.33;43.67;;;;;3.19;59.39;100494.88;6282893;20;2868021;-43
2022/02/28 04:06:59;;;;;;;;;24.67;19.33;;;;;3.19;59.20;100492.22;6313252;20;3553355;-45
2022/02/28 04:09:28;;;;;;;;;25.00;20.33;;;;;3.42;59.05;100493.53;6280597;20;3559733;-45
2022/02/28 04:11:57;;;;;;;;;30.00;19.33;;;;;3.53;58.65;100496.88;6280600;20;3586682;-44
2022/02/28 04:14:25;;;;;;;;;25.00;22.00;;;;;3.43;58.57;100496.19;6285438;20;2824336;-44
2022/02/28 04:16:52;;;;;;;;;18.00;16.50;;;;;3.48;58.27;100502.28;6284453;20;2832602;-44
2022/02/28 04:19:21;;;;;;;;;36.50;31.00;;;;;3.44;59.20;100497.06;6279658;20;2500394;-46
2022/02/28 04:21:49;;;;;;;;;16.67;16.67;;;;;3.34;58.95;100490.16;6281011;20;3555595;-45
2022/02/28 04:24:17;;;;;;;;;23.00;19.00;;;;;3.18;59.20;100493.09;6313501;20;2500364;-44
2022/02/28 04:26:46;;;;;;;;;26.00;21.50;;;;;3.19;58.95;100500.19;6282967;20;2826317;-45
2022/02/28 04:29:14;;;;;;;;;26.33;20.00;;;;;3.36;58.93;100494.53;6281142;20;2844108;-45
2022/02/28 04:31:45;;;;;;;;;24.00;23.00;;;;;3.40;58.51;100501.56;6317015;20;2827336;-44
2022/02/28 04:34:15;;;;;;;;;49.67;40.33;;;;;3.29;59.25;100483.19;6279884;20;2873189;-44
2022/02/28 04:36:44;;;;;;;;;36.00;28.00;;;;;3.30;59.38;100487.56;6314599;20;2857569;-47
2022/02/28 04:39:12;;;;;;;;;30.50;23.50;;;;;3.19;59.61;100497.53;6279936;20;2500913;-44
2022/02/28 04:41:41;;;;;;;;;42.50;37.00;;;;;3.20;59.72;100493.97;6284259;20;2847168;-46
2022/02/28 04:44:10;;;;;;;;;21.00;19.00;;;;;2.85;59.94;100502.56;6284095;20;3572098;-45
2022/02/28 04:46:38;;;;;;;;;22.33;19.67;;;;;3.32;59.52;100492.88;6283999;20;3561218;-45
2022/02/28 04:49:06;;;;;;;;;25.50;23.00;;;;;3.08;60.37;100510.09;6280161;20;2831520;-44
2022/02/28 04:51:35;;;;;;;;;17.67;15.00;;;;;2.83;60.36;100502.56;6282465;20;3542004;-44
2022/02/28 04:54:04;;;;;;;;;22.33;20.67;;;;;2.91;60.78;100512.19;6282827;20;3553389;-45
2022/02/28 04:56:33;;;;;;;;;33.00;31.67;;;;;2.76;61.09;100503.56;6314152;20;3584652;-45
2022/02/28 04:59:00;;;;;;;;;21.00;18.00;;;;;3.10;60.28;100510.94;6314092;20;2829406;-45
2022/02/28 05:01:28;;;;;;;;;26.50;18.00;;;;;2.83;60.82;100507.00;6280399;20;2834637;-44
2022/02/28 05:04:01;;;;;;;;;28.00;23.33;;;;;2.75;60.80;100509.78;6277414;20;3575465;-45
2022/02/28 05:06:30;;;;;;;;;23.33;22.67;;;;;2.30;63.04;100516.66;6312579;20;3571061;-46
2022/02/28 05:08:58;;;;;;;;;32.33;21.33;;;;;2.42;62.06;100512.06;6281117;20;3576394;-43
2022/02/28 05:11:27;;;;;;;;;28.33;20.00;;;;;2.68;62.11;100521.38;6281644;20;3571061;-43
2022/02/28 05:13:59;;;;;;;;;21.50;15.50;;;;;2.91;61.75;100522.78;6314920;20;2808689;-43
2022/02/28 05:16:28;;;;;;;;;19.00;19.00;;;;;2.71;61.42;100525.75;6282165;20;3562730;-44
2022/02/28 05:18:56;;;;;;;;;35.00;25.00;;;;;2.74;62.50;100513.34;6310498;20;2852454;-49
2022/02/28 05:21:23;;;;;;;;;29.00;27.00;;;;;2.53;62.77;100522.50;6281769;20;2840007;-48
2022/02/28 05:23:51;;;;;;;;;20.00;16.00;;;;;2.52;64.02;100515.44;6282652;20;2809749;-43
2022/02/28 05:26:20;;;;;;;;;21.67;12.67;;;;;2.40;61.96;100521.81;6279052;20;2810824;-45
2022/02/28 05:28:48;;;;;;;;;37.00;32.50;;;;;2.60;61.45;100523.25;6308684;20;2500307;-45
2022/02/28 05:31:15;;;;;;;;;22.00;18.00;;;;;2.28;60.57;100521.97;6275037;20;2821100;-44
2022/02/28 05:33:44;;;;;;;;;28.00;19.33;;;;;2.39;58.49;100525.34;6280214;20;3581592;-42
2022/02/28 05:36:12;;;;;;;;;21.00;18.00;;;;;2.32;57.22;100518.41;6281302;20;2677378;-44
2022/02/28 05:38:40;;;;;;;;;21.00;16.00;;;;;2.37;56.36;100526.25;6277038;20;2831612;-43
2022/02/28 05:41:10;;;;;;;;;17.33;13.00;;;;;2.44;55.09;100524.41;6320166;20;1821574;-43
2022/02/28 05:43:39;;;;;;;;;12.75;11.00;;;;;2.30;53.90;100530.78;6301651;20;1830592;-43
2022/02/28 05:46:09;;;;;;;;;5.00;1.00;;;;;2.36;53.10;100538.63;6313223;20;3452341;-43
2022/02/28 05:48:40;;;;;;;;;12.50;8.83;;;;;2.39;51.90;100535.94;6352889;20;1812786;-44
2022/02/28 05:51:09;;;;;;;;;22.67;19.67;;;;;2.76;52.45;100535.38;6281953;20;3584622;-43
2022/02/28 05:53:37;;;;;;;;;1.00;0.00;;;;;2.47;51.42;100529.66;6307596;20;3434696;-44
2022/02/28 05:56:06;;;;;;;;;5.00;4.00;;;;;2.65;50.37;100534.69;6311715;20;3460641;-44
2022/02/28 05:58:37;;;;;;;;;8.17;8.17;;;;;2.59;49.66;100535.66;6357407;20;1810786;-45
2022/02/28 06:01:05;;;;;;;;;10.00;5.00;;;;;2.88;49.85;100534.31;6283491;20;2760787;-43
2022/02/28 06:03:36;;;;;;;;;8.50;8.50;;;;;2.82;49.25;100537.94;6301770;20;1820720;-43
2022/02/28 06:06:06;;;;;;;;;10.00;6.60;;;;;2.84;49.25;100528.19;6337723;20;2767982;-44
2022/02/28 06:08:35;;;;;;;;;12.50;6.00;;;;;2.72;49.04;100538.13;6326435;20;1837872;-45
2022/02/28 06:11:02;;;;;;;;;8.00;7.00;;;;;2.54;48.88;100536.63;6314844;20;2748243;-44
2022/02/28 06:13:30;;;;;;;;;8.67;4.00;;;;;2.65;48.94;100542.63;6312681;20;3452391;-45
2022/02/28 06:15:59;;;;;;;;;8.00;8.00;;;;;2.65;49.14;100534.69;6313753;20;2736110;-44
2022/02/28 06:18:27;;;;;;;;;2.00;2.00;;;;;2.63;49.05;100534.72;6314674;20;3441893;-45
2022/02/28 06:20:55;;;;;;;;;7.00;5.00;;;;;2.72;49.48;100544.28;6310167;20;3452307;-45
2022/02/28 06:23:24;;;;;;;;;5.25;5.00;;;;;2.64;49.26;100547.06;6333668;20;1822692;-43
2022/02/28 06:25:51;;;;;;;;;7.67;2.00;;;;;2.70;49.79;100538.13;6313565;20;2729516;-47
2022/02/28 06:28:22;;;;;;;;;15.00;10.00;;;;;2.94;49.36;100549.25;6328562;20;1826405;-46
2022/02/28 06:30:50;;;;;;;;;4.33;2.67;;;;;2.70;50.10;100539.91;6313579;20;3471059;-44
2022/02/28 06:33:17;;;;;;;;;8.00;5.50;;;;;2.76;50.45;100540.69;6286614;20;2754424;-45
2022/02/28 06:35:48;;;;;;;;;6.00;6.00;;;;;2.91;50.03;100557.25;6336884;20;1815908;-47
2022/02/28 06:38:18;;;;;;;;;10.00;4.00;;;;;2.82;50.37;100545.91;6317699;20;3489816;-43
2022/02/28 06:40:48;;;;;;;;;6.00;5.00;;;;;3.06;49.59;100552.56;6303348;20;1825299;-44
2022/02/28 06:43:24;;;;;;;;;7.00;7.00;;;;;3.12;49.61;100548.94;6339669;20;1819091;-45
2022/02/28 06:45:55;;;;;;;;;8.67;6.00;;;;;3.27;49.83;100555.78;6338876;20;1825359;-44
2022/02/28 06:48:24;;;;;;;;;9.00;6.00;;;;;2.82;50.97;100553.84;6339228;20;1813241;-44
2022/02/28 06:50:52;;;;;;;;;10.50;9.00;;;;;3.30;50.56;100556.59;6337658;20;1822300;-46
2022/02/28 06:53:22;;;;;;;;;4.67;4.67;;;;;3.16;51.79;100555.97;6321480;20;3463836;-45
2022/02/28 06:55:54;;;;;;;;;10.00;8.00;;;;;3.13;52.14;100550.69;6321925;20;2761700;-44
2022/02/28 06:58:22;;;;;;;;;9.25;8.00;;;;;2.91;52.88;100551.97;6339406;20;1819852;-46
2022/02/28 07:00:53;;;;;;;;;5.50;4.00;;;;;3.34;52.09;100556.53;6340086;20;1813889;-44
2022/02/28 07:03:22;;;;;;;;;8.75;5.00;;;;;2.79;52.50;100561.88;6338215;20;1822151;-46
2022/02/28 07:05:52;;;;;;;;;7.75;7.50;;;;;2.80;52.12;100558.31;6339777;20;1825282;-45
2022/02/28 07:08:22;;;;;;;;;5.00;5.00;;;;;2.92;52.11;100553.69;6318687;20;2754403;-47
2022/02/28 07:10:50;;;;;;;;;5.33;4.00;;;;;2.59;52.61;100559.50;6321947;20;3462767;-45
2022/02/28 07:13:19;;;;;;;;;4.00;4.00;;;;;2.98;51.76;100561.56;6318466;20;2748249;-43
2022/02/28 07:15:48;;;;;;;;;7.25;5.25;;;;;2.96;51.80;100558.06;6338513;20;1823178;-44
2022/02/28 07:18:16;;;;;;;;;5.00;5.00;;;;;3.18;51.51;100564.75;6320853;20;3466967;-46
2022/02/28 07:20:44;;;;;;;;;12.00;8.00;;;;;3.44;50.98;100566.94;6290374;20;2758641;-44
2022/02/28 07:23:12;;;;;;;;;9.00;7.00;;;;;3.38;51.49;100568.84;6319728;20;2747128;-47
2022/02/28 07:25:40;;;;;;;;;8.00;5.50;;;;;3.60;50.97;100577.28;6322638;20;2750658;-44
2022/02/28 07:28:09;;;;;;;;;5.00;5.00;;;;;3.85;52.12;100567.94;6338737;20;1813920;-46
2022/02/28 07:30:38;;;;;;;;;9.50;5.25;;;;;3.54;51.52;100572.97;6336948;20;1829536;-44
2022/02/28 07:33:07;;;;;;;;;6.00;5.00;;;;;3.41;50.53;100572.31;6339132;20;1811795;-44
2022/02/28 07:35:36;;;;;;;;;9.00;5.50;;;;;3.62;50.51;100572.81;6320183;20;2758647;-43
2022/02/28 07:38:04;;;;;;;;;7.00;6.00;;;;;3.87;49.54;100567.91;6321164;20;2749239;-44
2022/02/28 07:40:32;;;;;;;;;29.00;19.00;;;;;4.25;48.60;100569.78;6319406;20;2867983;-43
2022/02/28 07:43:01;;;;;;;;;9.00;8.00;;;;;3.99;49.35;100554.38;6302329;20;1822218;-45
2022/02/28 07:45:29;;;;;;;;;1.00;1.00;;;;;4.32;47.91;100565.22;6321550;20;3431469;-47
2022/02/28 07:47:57;;;;;;;;;9.00;9.00;;;;;4.93;47.81;100571.78;6319783;20;2751292;-45
2022/02/28 07:50:25;;;;;;;;;8.00;8.00;;;;;3.64;49.71;100563.94;6286677;20;2747158;-45
2022/02/28 07:52:53;;;;;;;;;12.00;6.00;;;;;3.86;50.01;100563.50;6318126;20;2757533;-46
2022/02/28 07:55:21;;;;;;;;;5.25;4.25;;;;;3.32;50.82;100563.63;6319402;20;1819087;-44
2022/02/28 07:57:50;;;;;;;;;5.00;5.00;;;;;3.29;50.78;100570.75;6338531;20;1818083;-45
2022/02/28 08:00:18;;;;;;;;;6.67;4.33;;;;;3.49;50.84;100574.81;6318349;20;3461727;-44
2022/02/28 08:02:47;;;;;;;;;4.00;4.00;;;;;3.40;51.17;100567.91;6338512;20;1824311;-46
2022/02/28 08:05:15;;;;;;;;;11.00;6.00;;;;;3.34;51.71;100568.00;6320198;20;2765978;-45
2022/02/28 08:07:43;;;;;;;;;1.00;1.00;;;;;3.38;52.92;100574.16;6289209;20;2723342;-44
2022/02/28 08:10:11;;;;;;;;;11.00;8.50;;;;;3.05;54.84;100579.13;6315671;20;2758696;-47
2022/02/28 08:12:40;;;;;;;;;9.25;8.50;;;;;2.99;55.39;100573.94;6306577;20;1815594;-45
2022/02/28 08:15:10;;;;;;;;;6.00;2.00;;;;;3.04;56.07;100577.38;6317653;20;3467929;-44
2022/02/28 08:17:38;;;;;;;;;8.00;7.00;;;;;2.99;56.38;100584.53;6321166;20;2745052;-43
2022/02/28 08:20:08;;;;;;;;;8.00;8.00;;;;;2.53;57.53;100585.25;6318246;20;2734635;-45
2022/02/28 08:22:36;;;;;;;;;10.50;7.00;;;;;2.75;57.42;100588.44;6337244;20;1840367;-43
2022/02/28 08:25:06;;;;;;;;;6.00;6.00;;;;;2.72;58.17;100588.50;6338661;20;1811739;-44
2022/02/28 08:27:34;;;;;;;;;8.00;8.00;;;;;2.63;58.07;100592.13;6316611;20;2742994;-44
2022/02/28 08:30:05;;;;;;;;;9.00;8.00;;;;;2.61;58.00;100596.63;6319973;20;2733626;-44
2022/02/28 08:32:33;;;;;;;;;6.75;5.50;;;;;3.07;59.25;100593.25;6336508;20;1831732;-44
2022/02/28 08:35:02;;;;;;;;;8.00;5.33;;;;;2.69;58.50;100596.50;6319820;20;3461797;-45
2022/02/28 08:37:30;;;;;;;;;4.67;3.33;;;;;3.24;57.33;100601.81;6317294;20;3464884;-43
2022/02/28 08:40:00;;;;;;;;;6.00;4.50;;;;;2.55;58.64;100597.56;6336950;20;1825348;-43
2022/02/28 08:42:28;;;;;;;;;7.50;5.75;;;;;2.73;58.75;100593.75;6337528;20;1820845;-44
2022/02/28 08:44:56;;;;;;;;;12.50;6.00;;;;;2.69;58.98;100597.38;6316238;20;2771099;-50
2022/02/28 08:47:27;;;;;;;;;8.75;8.75;;;;;2.79;59.40;100604.31;6328767;20;2479423;-45
2022/02/28 08:49:55;;;;;;;;;7.50;5.00;;;;;2.83;59.50;100599.81;6307701;20;1818506;-46
2022/02/28 08:52:23;;;;;;;;;8.67;7.33;;;;;2.81;59.58;100601.59;6317964;20;3460705;-46
2022/02/28 08:54:52;;;;;;;;;4.50;4.50;;;;;2.85;60.21;100590.94;6336803;20;1817968;-46
2022/02/28 08:57:21;;;;;;;;;25.50;25.00;;;;;3.64;58.56;100601.09;6317660;20;2839199;-44
2022/02/28 08:59:49;;;;;;;;;9.67;5.00;;;;;3.48;59.04;100600.50;6285072;20;3467958;-45
2022/02/28 09:02:19;;;;;;;;;7.00;6.50;;;;;3.12;60.71;100598.47;6305318;20;1824702;-45
2022/02/28 09:04:48;;;;;;;;;6.00;6.00;;;;;3.88;59.66;100602.41;6332386;20;1812780;-47
2022/02/28 09:07:17;;;;;;;;;9.50;7.00;;;;;3.54;60.35;100599.53;6334734;20;1821755;-45
2022/02/28 09:09:45;;;;;;;;;9.00;8.00;;;;;3.73;59.96;100615.97;6335036;20;1815506;-45
2022/02/28 09:12:15;;;;;;;;;4.75;4.25;;;;;3.67;61.05;100609.00;6336360;20;1823272;-47
2022/02/28 09:14:43;;;;;;;;;9.00;6.00;;;;;4.60;59.26;100600.91;6334580;20;1821201;-44
2022/02/28 09:17:11;;;;;;;;;5.00;5.00;;;;;4.62;59.18;100600.88;6319246;20;2748183;-45
2022/02/28 09:19:39;;;;;;;;;5.50;5.50;;;;;4.60;58.99;100595.56;6316510;20;2752341;-44
2022/02/28 09:22:09;;;;;;;;;8.00;6.00;;;;;3.92;61.20;100604.13;6319782;20;3455447;-44
2022/02/28 09:24:38;;;;;;;;;8.50;5.50;;;;;3.99;62.07;100606.66;6335278;20;1825258;-44
2022/02/28 09:27:07;;;;;;;;;6.00;4.00;;;;;4.20;61.68;100600.03;6320203;20;2742990;-44
2022/02/28 09:29:36;;;;;;;;;6.50;6.50;;;;;3.83;63.27;100614.03;6333171;20;1813804;-44
2022/02/28 09:32:06;;;;;;;;;4.25;4.25;;;;;4.37;62.80;100616.47;6337614;20;1823289;-45
2022/02/28 09:34:34;;;;;;;;;7.00;5.00;;;;;3.73;63.75;100614.19;6336251;20;1817073;-46
2022/02/28 09:37:03;;;;;;;;;12.00;10.00;;;;;3.10;65.60;100618.84;6316867;20;2780590;-46
2022/02/28 09:39:31;;;;;;;;;7.00;5.00;;;;;3.17;66.27;100620.50;6302649;20;1821039;-45
2022/02/28 09:42:03;;;;;;;;;7.50;7.00;;;;;3.59;65.76;100618.91;6337322;20;1821251;-46
2022/02/28 09:44:31;;;;;;;;;12.00;7.00;;;;;3.61;65.91;100624.19;6317982;20;2769137;-45
2022/02/28 09:47:02;;;;;;;;;118.33;99.00;;;;;3.94;66.00;100625.31;6282323;20;3684608;-44
2022/02/28 09:49:31;;;;;;;;;8.50;7.50;;;;;3.71;66.04;100621.34;6333333;20;1814949;-47
2022/02/28 09:52:00;;;;;;;;;7.00;5.75;;;;;4.18;64.44;100619.50;6331795;20;1812809;-44
2022/02/28 09:54:32;;;;;;;;;17.80;13.60;;;;;3.65;64.59;100618.78;6339037;20;2820504;-44
2022/02/28 09:57:02;;;;;;;;;38.00;32.00;;;;;4.53;62.29;100609.94;6284231;20;2857535;-45
2022/02/28 09:59:29;;;;;;;;;11.00;9.00;;;;;3.83;63.78;100611.38;6317711;20;2763812;-44
2022/02/28 10:02:00;;;;;;;;;7.50;7.50;;;;;3.53;64.93;100608.41;6334377;20;1814895;-47
2022/02/28 10:04:29;;;;;;;;;5.00;3.00;;;;;3.43;65.04;100607.69;6337369;20;1821178;-46
2022/02/28 10:07:01;;;;;;;;;5.75;1.50;;;;;3.64;64.58;100622.34;6344765;20;1825343;-44
2022/02/28 10:09:32;;;;;;;;;30.67;28.00;;;;;3.44;65.32;100613.84;6349462;20;3585619;-45
2022/02/28 10:11:59;;;;;;;;;7.33;5.33;;;;;3.24;67.34;100617.75;6294068;20;3460654;-47
2022/02/28 10:14:32;;;;;;;;;8.75;8.75;;;;;2.35;74.96;100629.63;6348150;20;1808626;-47
2022/02/28 10:17:00;;;;;;;;;14.00;12.00;;;;;2.18;80.01;100626.31;6327242;20;2777398;-42
2022/02/28 10:19:32;;;;;;;;;10.50;9.00;;;;;2.22;84.68;100638.63;6290652;20;2758598;-42
2022/02/28 10:22:04;;;;;;;;;13.00;9.00;;;;;1.90;91.75;100641.66;6296125;20;2762742;-43
2022/02/28 10:24:39;;;;;;;;;13.00;9.50;;;;;0.98;96.29;100643.34;6294342;20;2774251;-47
2022/02/28 10:27:09;;;;;;;;;22.33;19.33;;;;;1.00;100.00;100654.81;6296015;20;2835786;-44
2022/02/28 10:29:42;;;;;;;;;17.67;17.67;;;;;0.85;100.00;100646.97;6322806;20;2825365;-44
2022/02/28 10:32:12;;;;;;;;;27.50;22.00;;;;;0.74;100.00;100646.13;6348175;20;2834679;-45
2022/02/28 10:37:48;;;;;;;;;30.33;28.33;;;;;0.91;100.00;100640.75;6296451;20;3576290;-46
2022/02/28 10:40:32;;;;;;;;;40.50;35.50;;;;;1.27;100.00;100643.13;6293691;20;2863813;-44
2022/02/28 10:43:01;;;;;;;;;52.00;40.50;;;;;1.46;100.00;100646.50;6296061;20;2876333;-52
2022/02/28 10:45:29;;;;;;;;;60.00;48.50;;;;;1.44;100.00;100635.03;6287638;20;2487796;-51
2022/02/28 10:47:57;;;;;;;;;55.00;45.00;;;;;1.18;100.00;100634.38;6293885;20;2578468;-52
2022/02/28 10:50:38;;;;;;;;;24.00;24.00;;;;;1.37;100.00;100635.09;6289997;20;2508626;-45
2022/02/28 10:53:19;;;;;;;;;82.50;64.75;;;;;1.15;100.00;100639.69;6292618;20;3632814;-46
2022/02/28 10:55:52;;;;;;;;;58.00;48.50;;;;;1.51;100.00;100646.47;6325454;20;2855483;-45
2022/02/28 10:58:26;;;;;;;;;47.00;39.50;;;;;1.40;100.00;100651.84;6295584;20;2878398;-43
2022/02/28 11:01:04;;;;;;;;;23.00;19.50;;;;;2.00;100.00;100642.41;6292551;20;2491968;-45
2022/02/28 11:03:50;;;;;;;;;29.00;29.00;;;;;2.08;100.00;100649.41;6295099;20;3590849;-45
2022/02/28 11:06:24;;;;;;;;;30.50;24.00;;;;;2.27;99.90;100642.13;6292259;20;2845199;-43
2022/02/28 11:08:54;;;;;;;;;22.67;19.67;;;;;2.64;98.42;100647.81;6294251;20;3549201;-42
2022/02/28 11:11:22;;;;;;;;;29.00;26.50;;;;;2.26;99.37;100636.81;6325523;20;2851329;-42
2022/02/28 11:13:50;;;;;;;;;28.50;21.00;;;;;2.62;97.60;100644.28;6290666;20;2500255;-42
2022/02/28 11:16:18;;;;;;;;;25.00;18.00;;;;;2.24;97.20;100636.84;6296794;20;2821246;-42
2022/02/28 11:18:47;;;;;;;;;65.00;51.00;;;;;2.38;98.29;100634.91;6282599;20;2500306;-42